Flight Track Log - Related Links

Times and Time Zones

All times are in EST time to prevent confusion due to time zone crossing. See the CSJ405 flight status page for this flight to view local times or setup timezone preferences in your user account.

Time Position Orientation Groundspeed Altitude Reporting Facility
EST Latitude Longitude Course Direction KTS MPH feet Rate Location/Type
Tue 09:51:16 PM 43.1214 -77.6739 348° North 93 107 1,100  Level Cleveland Center
Tue 09:51:22 PM 43.1233 -77.6744 348° North 92 106 1,200 627 Climbing Cleveland Center
Tue 09:52:23 PM 43.1492 -77.6872 340° North 136 157 1,800 635 Climbing Cleveland Center
Tue 09:53:06 PM 43.1503 -77.7206 273° West 136 157 2,300 700 Climbing Cleveland Center
Tue 09:53:23 PM 43.1506 -77.7367 271° West 129 148 2,500 590 Climbing Cleveland Center
Tue 09:54:07 PM 43.1517 -77.7686 273° West 133 153 2,900 590 Climbing Cleveland Center
Tue 09:54:24 PM 43.1525 -77.7836 274° West 127 146 3,100 689 Climbing Cleveland Center
Tue 09:55:08 PM 43.1531 -77.8164 271° West 131 151 3,600 800 Climbing Cleveland Center
Tue 09:55:24 PM 43.1517 -77.8328 263° West 120 138 3,900 484 Climbing Cleveland Center
Tue 09:56:10 PM 43.1531 -77.8608 274° West 126 145 4,100 112 Climbing Cleveland Center
Tue 09:57:11 PM 43.1542 -77.9117 272° West 126 145 4,100  Level Cleveland Center
Tue 09:58:13 PM 43.1558 -77.9669 272° West 135 155 4,100  Level Cleveland Center
Tue 10:00:04 PM 43.1667 -78.0833 277° West 141 162 4,100  Level Buffalo TRACON
Tue 10:00:58 PM 43.1667 -78.1167 270° West 141 162 4,100  Level Buffalo TRACON
Tue 10:02:04 PM 43.1667 -78.1833 270° West 142 163 4,100  Level Buffalo TRACON
Tue 10:03:04 PM 43.1667 -78.2333 270° West 142 163 4,100  Level Buffalo TRACON
Tue 10:04:04 PM 43.1667 -78.2833 270° West 141 162 4,100  Level Buffalo TRACON
Tue 10:05:04 PM 43.1667 -78.3500 270° West 143 165 4,100  Level Buffalo TRACON
Tue 10:06:04 PM 43.1667 -78.4000 270° West 143 165 4,100  Level Buffalo TRACON
Tue 10:06:58 PM 43.1667 -78.4500 270° West 143 165 4,100  Level Buffalo TRACON
Tue 10:07:58 PM 43.1667 -78.5000 270° West 141 162 4,100  Level Buffalo TRACON
Tue 10:08:58 PM 43.1667 -78.5500 270° West 144 166 4,100  Level Buffalo TRACON
Tue 10:09:29 PM 43.1642 -78.5825 264° West 143 165 4,100  Level Cleveland Center
Tue 10:10:30 PM 43.1656 -78.6375 272° West 143 165 4,100  Level Cleveland Center
Tue 10:11:32 PM 43.1689 -78.6897 275° West 143 165 4,100  Level Cleveland Center
Tue 10:12:33 PM 43.1675 -78.7464 268° West 143 165 4,100  Level Cleveland Center
Tue 10:13:35 PM 43.1653 -78.8025 267° West 143 165 4,100  Level Cleveland Center
Tue 10:14:37 PM 43.1689 -78.8661 274° West 143 165 4,100  Level Cleveland Center
Tue 10:15:15 PM 43.1667 -78.8833 260° West 140 161 4,100  Level Toronto Center
Tue 10:16:15 PM 43.1667 -78.9167 270° West 140 161 4,100  Level Toronto Center
Tue 10:17:15 PM 43.1667 -79.0000 270° West 150 173 4,100  Level Toronto Center
Tue 10:18:15 PM 43.1500 -79.0333 236° Southwest 150 173 4,100  Level Toronto Center
Tue 10:19:15 PM 43.1500 -79.1000 270° West 150 173 4,100  Level Toronto Center
Tue 10:20:15 PM 43.1500 -79.1500 270° West 150 173 4,100  Level Toronto Center
Tue 10:21:15 PM 43.1500 -79.2167 270° West 150 173 4,100  Level Toronto Center
Tue 10:22:15 PM 43.1500 -79.2667 270° West 150 173 4,100 -50 Level Toronto Center
Tue 10:23:15 PM 43.1333 -79.3333 251° West 150 173 4,000 -450 Descending Toronto Center
Tue 10:24:15 PM 43.1333 -79.3833 270° West 160 184 3,200 -450 Descending Toronto Center
Tue 10:25:15 PM 43.1333 -79.4500 270° West 160 184 3,100 -50 Descending Toronto Center
Tue 10:26:15 PM 43.1333 -79.5000 270° West 150 173 3,100  Level Toronto Center
Tue 10:27:15 PM 43.1167 -79.5667 251° West 150 173 3,100  Level Toronto Center
Tue 10:28:15 PM 43.1167 -79.6167 270° West 150 173 3,100  Level Toronto Center
Tue 10:29:15 PM 43.1167 -79.6833 270° West 150 173 3,100 -200 Level Toronto Center
Tue 10:30:15 PM 43.1167 -79.7167 270° West 150 173 2,700 -450 Descending Toronto Center
Tue 10:31:15 PM 43.1333 -79.8000 285° West 150 173 2,200 -600 Descending Toronto Center
Tue 10:32:15 PM 43.1500 -79.8333 304° West 130 150 1,500 -500 Descending Toronto Center
Tue 10:33:15 PM 43.1500 -79.8667 270° West 120 138 1,200 -350 Descending Toronto Center
Tue 10:34:15 PM 43.1667 -79.9000 304° West 80 92 800 -200 Descending Toronto Center
Tue 10:35:15 PM 43.1667 -79.9000 180° South 40 46 800  Level Toronto Center
Tue 10:37:08 PM 43.1706 -79.9269 281° West 30 35 800  Level Cleveland Center
Tue 10:38:09 PM 43.1667 -79.9336 231° Southwest 27 31 800  Level Cleveland Center
Tue 10:39:10 PM 43.1639 -79.9342 188° South 17 20 800  Level Cleveland Center

Login

Don't have an account? Register now (free) for customized features, flight alerts, and more!